createdAt,value
2019-03-18T00:00:30.176Z,7.6
2019-03-18T00:10:33.590Z,7.9
2019-03-18T00:20:37.128Z,7.6
2019-03-18T00:30:40.567Z,7.7
2019-03-18T00:40:43.986Z,7.1
2019-03-18T00:50:47.374Z,7.2
2019-03-18T01:00:50.794Z,7.1
2019-03-18T01:10:54.251Z,7.4
2019-03-18T01:20:57.685Z,7
2019-03-18T01:31:01.140Z,6.8
2019-03-18T01:41:04.584Z,6.8
2019-03-18T01:51:08.013Z,7.3
2019-03-18T02:01:11.450Z,7.1
2019-03-18T02:11:14.881Z,7
2019-03-18T02:21:18.320Z,7
2019-03-18T02:31:21.761Z,7.2
2019-03-18T02:41:25.203Z,7
2019-03-18T02:51:28.709Z,7
2019-03-18T03:01:32.177Z,6.8
2019-03-18T03:11:36.677Z,6.7
2019-03-18T03:21:40.177Z,6.8
2019-03-18T03:31:43.674Z,6.9
2019-03-18T03:41:47.240Z,7.1
2019-03-18T03:51:50.687Z,7.1
2019-03-18T04:01:54.120Z,7.2
2019-03-18T04:11:58.546Z,7.2
2019-03-18T04:22:02.045Z,7.3
2019-03-18T04:32:05.464Z,7
2019-03-18T04:42:08.947Z,7.1
2019-03-18T04:52:12.385Z,7.2
2019-03-18T05:02:16.858Z,7.2
2019-03-18T05:12:20.515Z,7.2
2019-03-18T05:22:23.977Z,7.2
2019-03-18T05:32:27.470Z,7.2
2019-03-18T05:42:30.942Z,7.1
2019-03-18T05:52:34.347Z,7
2019-03-18T06:02:37.771Z,6.7
2019-03-18T06:12:41.208Z,6.8
2019-03-18T06:22:44.617Z,6.9
2019-03-18T06:32:48.065Z,7.6
2019-03-18T06:42:51.509Z,7.6
2019-03-18T06:52:54.943Z,7.4
2019-03-18T07:02:58.343Z,8.2
2019-03-18T07:13:01.815Z,8.3
2019-03-18T07:23:05.277Z,8.7
2019-03-18T07:33:08.692Z,8.8
2019-03-18T07:43:12.154Z,9.6
2019-03-18T07:53:18.178Z,11
2019-03-18T08:03:21.855Z,12.2
2019-03-18T08:13:25.320Z,12.7
2019-03-18T08:23:28.729Z,13.6
2019-03-18T08:33:32.159Z,12.4
2019-03-18T08:43:35.616Z,11.1
2019-03-18T08:53:39.054Z,10.3
2019-03-18T09:03:42.503Z,10.2
2019-03-18T09:13:45.935Z,10.3
2019-03-18T09:23:49.359Z,11
2019-03-18T09:33:52.787Z,11.8
2019-03-18T09:43:56.188Z,11.7
2019-03-18T09:53:59.605Z,11.7
2019-03-18T10:04:03.024Z,10.4
2019-03-18T10:14:06.446Z,10.3
2019-03-18T10:24:09.881Z,9.9
2019-03-18T10:34:13.365Z,10
2019-03-18T10:44:17.135Z,10.5
2019-03-18T10:54:30.302Z,11.2
2019-03-18T11:04:34.955Z,10.8
2019-03-18T11:14:39.409Z,11.2
2019-03-18T11:24:42.967Z,11.1
2019-03-18T11:34:46.490Z,10.8
2019-03-18T11:44:49.917Z,11.1
2019-03-18T11:54:53.364Z,10.9
2019-03-18T12:04:57.698Z,11
2019-03-18T12:15:01.420Z,10.3
2019-03-18T12:25:05.138Z,9.9
2019-03-18T12:35:08.534Z,9.9
2019-03-18T12:45:11.992Z,9.9
2019-03-18T12:55:15.397Z,9.8
2019-03-18T13:05:18.848Z,10.1
2019-03-18T13:15:22.260Z,9.9
2019-03-18T13:25:25.718Z,10
2019-03-18T13:35:29.120Z,10.4
2019-03-18T13:45:32.577Z,10.3
2019-03-18T13:55:35.959Z,10
2019-03-18T14:05:39.387Z,9.7
2019-03-18T14:15:42.853Z,10.3
2019-03-18T14:25:46.255Z,10.3
2019-03-18T14:35:49.739Z,10.2
2019-03-18T14:45:53.198Z,10.3
2019-03-18T14:55:56.659Z,9.9
2019-03-18T15:06:00.206Z,9.5
2019-03-18T15:16:03.668Z,9.1
2019-03-18T15:26:07.109Z,9.4
2019-03-18T15:36:10.509Z,9.6
2019-03-18T15:46:13.960Z,9.6
2019-03-18T15:56:17.405Z,9.1
2019-03-18T16:06:20.864Z,8.6
2019-03-18T16:16:24.298Z,9.2
2019-03-18T16:26:27.751Z,9.4
2019-03-18T16:36:31.180Z,8.8
2019-03-18T16:46:34.606Z,9.4
2019-03-18T16:56:38.060Z,9.3
2019-03-18T17:06:41.493Z,9.3
2019-03-18T17:16:45.937Z,8.7
2019-03-18T17:26:49.346Z,8.7
2019-03-18T17:36:52.799Z,8.7
2019-03-18T17:46:56.216Z,8.5
2019-03-18T17:57:06.921Z,8.6
2019-03-18T18:07:14.562Z,8.6
2019-03-18T18:17:18.094Z,8.4
2019-03-18T18:27:21.520Z,8.2
